PWSweather.com
Personal Weather Stations
Station Observations
ANTHEMNP
Anthem, AZ 85086

Anthem, AZ 85086

Lat: 33.876464, Lon: -112.13861199999997

Elevation: 1930

Station Type: AcuRite 1036

High Low Average
Temperature 117.7°F47.6°C 90.0°F32.2°C 103.6°F39.8°C
Dew Point 52.3°F11.3°C 38.2°F3.4°C 44.4°F6.9°C
Winds 10.4 mph 16.7 kmh Calm Calm 4.0 mph SSE6.4 kmh SSE
Wind Gusts 10.4 mph16.7 kmh -- 5.0 mph8.0 kmh
Humidity 22% 9% 14%
Pressure 29.79 in1008.8 mb 29.62 in1003.0 mb -
Precipitation 0.00 in0.0 mm - -
Hour Temp Dew Point Humidity Winds Wind Gusts Pressure Precip Precip Rate Daily Precip Total
12:00 AM 94.5°F34.7°C 41.4°F5.2°C 16% 3.5 mph E5.6 kmh E 4.6 mph7.4 kmh 29.75 in1007.5 mb - 0.00 in0.0 mm 0.00 in0.0 mm
12:05 AM 94.5°F34.7°C 41.4°F5.2°C 16% 4.6 mph NE7.4 kmh NE 4.6 mph7.4 kmh 29.75 in1007.5 mb - 0.00 in0.0 mm 0.00 in0.0 mm
12:10 AM 94.3°F34.6°C 42.8°F6.0°C 17% 3.5 mph NNE5.6 kmh NNE 3.5 mph5.6 kmh 29.75 in1007.5 mb - 0.00 in0.0 mm 0.00 in0.0 mm
12:15 AM 94.1°F34.5°C 42.6°F5.9°C 17% 4.6 mph NNE7.4 kmh NNE 5.8 mph9.3 kmh 29.75 in1007.5 mb - 0.00 in0.0 mm 0.00 in0.0 mm
12:20 AM 94.3°F34.6°C 42.8°F6.0°C 17% 3.5 mph N5.6 kmh N 4.6 mph7.4 kmh 29.75 in1007.5 mb - 0.00 in0.0 mm 0.00 in0.0 mm
12:25 AM 94.5°F34.7°C 42.9°F6.1°C 17% 3.5 mph N5.6 kmh N 4.6 mph7.4 kmh 29.75 in1007.5 mb - 0.00 in0.0 mm 0.00 in0.0 mm
12:30 AM 94.5°F34.7°C 42.9°F6.1°C 17% 3.5 mph NNE5.6 kmh NNE 3.5 mph5.6 kmh 29.75 in1007.5 mb - 0.00 in0.0 mm 0.00 in0.0 mm
12:35 AM 94.3°F34.6°C 42.8°F6.0°C 17% 2.3 mph NNE3.7 kmh NNE 3.5 mph5.6 kmh 29.75 in1007.5 mb - 0.00 in0.0 mm 0.00 in0.0 mm
12:40 AM 94.3°F34.6°C 42.8°F6.0°C 17% 3.5 mph NNE5.6 kmh NNE 3.5 mph5.6 kmh 29.75 in1007.5 mb - 0.00 in0.0 mm 0.00 in0.0 mm
12:45 AM 94.3°F34.6°C 42.8°F6.0°C 17% 3.5 mph N5.6 kmh N 4.6 mph7.4 kmh 29.74 in1007.1 mb - 0.00 in0.0 mm 0.00 in0.0 mm
12:50 AM 94.3°F34.6°C 42.8°F6.0°C 17% 2.3 mph N3.7 kmh N 3.5 mph5.6 kmh 29.74 in1007.1 mb - 0.00 in0.0 mm 0.00 in0.0 mm
12:55 AM 94.1°F34.5°C 42.6°F5.9°C 17% 3.5 mph N5.6 kmh N 3.5 mph5.6 kmh 29.74 in1007.1 mb - 0.00 in0.0 mm 0.00 in0.0 mm
01:00 AM 94.1°F34.5°C 42.6°F5.9°C 17% 2.3 mph N3.7 kmh N 3.5 mph5.6 kmh 29.75 in1007.5 mb - 0.00 in0.0 mm 0.00 in0.0 mm
01:05 AM 93.9°F34.4°C 42.5°F5.8°C 17% 4.6 mph NNW7.4 kmh NNW 4.6 mph7.4 kmh 29.75 in1007.5 mb - 0.00 in0.0 mm 0.00 in0.0 mm
01:10 AM 93.6°F34.2°C 42.2°F5.7°C 17% 2.3 mph NE3.7 kmh NE 3.5 mph5.6 kmh 29.75 in1007.5 mb - 0.00 in0.0 mm 0.00 in0.0 mm
01:15 AM 93.4°F34.1°C 42.1°F5.6°C 17% 4.6 mph N7.4 kmh N 5.8 mph9.3 kmh 29.75 in1007.5 mb - 0.00 in0.0 mm 0.00 in0.0 mm
01:20 AM 93.2°F34.0°C 41.9°F5.5°C 17% 4.6 mph N7.4 kmh N 4.6 mph7.4 kmh 29.75 in1007.5 mb - 0.00 in0.0 mm 0.00 in0.0 mm
01:25 AM 93.4°F34.1°C 42.1°F5.6°C 17% 2.3 mph NE3.7 kmh NE 3.5 mph5.6 kmh 29.75 in1007.5 mb - 0.00 in0.0 mm 0.00 in0.0 mm
01:30 AM 93.1°F33.9°C 41.8°F5.4°C 17% 3.5 mph N5.6 kmh N 4.6 mph7.4 kmh 29.75 in1007.5 mb - 0.00 in0.0 mm 0.00 in0.0 mm
01:35 AM 92.8°F33.8°C 41.6°F5.3°C 17% 3.5 mph NNE5.6 kmh NNE 3.5 mph5.6 kmh 29.74 in1007.1 mb - 0.00 in0.0 mm 0.00 in0.0 mm
01:40 AM 92.7°F33.7°C 41.5°F5.3°C 17% 2.3 mph E3.7 kmh E 3.5 mph5.6 kmh 29.74 in1007.1 mb - 0.00 in0.0 mm 0.00 in0.0 mm
01:45 AM 92.4°F33.6°C 41.3°F5.2°C 17% 4.6 mph NE7.4 kmh NE 5.8 mph9.3 kmh 29.75 in1007.5 mb - 0.00 in0.0 mm 0.00 in0.0 mm
01:50 AM 92.1°F33.4°C 41.0°F5.0°C 17% 2.3 mph E3.7 kmh E 2.3 mph3.7 kmh 29.75 in1007.5 mb - 0.00 in0.0 mm 0.00 in0.0 mm
01:55 AM 91.9°F33.3°C 40.9°F4.9°C 17% 5.8 mph N9.3 kmh N 5.8 mph9.3 kmh 29.75 in1007.5 mb - 0.00 in0.0 mm 0.00 in0.0 mm
02:00 AM 91.8°F33.2°C 40.8°F4.9°C 17% 2.3 mph SSE3.7 kmh SSE 2.3 mph3.7 kmh 29.75 in1007.5 mb - 0.00 in0.0 mm 0.00 in0.0 mm
02:05 AM 91.8°F33.2°C 40.8°F4.9°C 17% 3.5 mph ENE5.6 kmh ENE 3.5 mph5.6 kmh 29.75 in1007.5 mb - 0.00 in0.0 mm 0.00 in0.0 mm
02:10 AM 91.6°F33.1°C 40.6°F4.8°C 17% 2.3 mph NE3.7 kmh NE 1.2 mph1.9 kmh 29.75 in1007.5 mb - 0.00 in0.0 mm 0.00 in0.0 mm
02:15 AM 91.2°F32.9°C 41.8°F5.4°C 18% 2.3 mph NNE3.7 kmh NNE 3.5 mph5.6 kmh 29.75 in1007.5 mb - 0.00 in0.0 mm 0.00 in0.0 mm
02:20 AM 91.0°F32.8°C 41.6°F5.3°C 18% 3.5 mph NNE5.6 kmh NNE 4.6 mph7.4 kmh 29.74 in1007.1 mb - 0.00 in0.0 mm 0.00 in0.0 mm
02:25 AM 90.6°F32.6°C 41.3°F5.2°C 18% 3.5 mph N5.6 kmh N 5.8 mph9.3 kmh 29.74 in1007.1 mb - 0.00 in0.0 mm 0.00 in0.0 mm
02:30 AM 90.5°F32.5°C 41.2°F5.1°C 18% 5.8 mph NE9.3 kmh NE 6.9 mph11.1 kmh 29.74 in1007.1 mb - 0.00 in0.0 mm 0.00 in0.0 mm
02:35 AM 90.7°F32.6°C 41.4°F5.2°C 18% 2.3 mph SSW3.7 kmh SSW 3.5 mph5.6 kmh 29.74 in1007.1 mb - 0.00 in0.0 mm 0.00 in0.0 mm
02:40 AM 90.7°F32.6°C 41.4°F5.2°C 18% 2.3 mph SE3.7 kmh SE 3.5 mph5.6 kmh 29.74 in1007.1 mb - 0.00 in0.0 mm 0.00 in0.0 mm
02:45 AM 91.0°F32.8°C 41.6°F5.3°C 18% 4.6 mph NE7.4 kmh NE 4.6 mph7.4 kmh 29.74 in1007.1 mb - 0.00 in0.0 mm 0.00 in0.0 mm
02:50 AM 91.2°F32.9°C 41.8°F5.4°C 18% 5.8 mph NNE9.3 kmh NNE 9.2 mph14.8 kmh 29.74 in1007.1 mb - 0.00 in0.0 mm 0.00 in0.0 mm
02:55 AM 91.2°F32.9°C 41.8°F5.4°C 18% 5.8 mph NE9.3 kmh NE 6.9 mph11.1 kmh 29.74 in1007.1 mb - 0.00 in0.0 mm 0.00 in0.0 mm
03:00 AM 91.2°F32.9°C 41.8°F5.4°C 18% 4.6 mph NNE7.4 kmh NNE 3.5 mph5.6 kmh 29.74 in1007.1 mb - 0.00 in0.0 mm 0.00 in0.0 mm
03:05 AM 91.0°F32.8°C 41.6°F5.3°C 18% 4.6 mph N7.4 kmh N 4.6 mph7.4 kmh 29.74 in1007.1 mb - 0.00 in0.0 mm 0.00 in0.0 mm
03:10 AM 91.0°F32.8°C 41.6°F5.3°C 18% 4.6 mph NNE7.4 kmh NNE 5.8 mph9.3 kmh 29.74 in1007.1 mb - 0.00 in0.0 mm 0.00 in0.0 mm
03:15 AM 91.2°F32.9°C 41.8°F5.4°C 18% 4.6 mph NNW7.4 kmh NNW 5.8 mph9.3 kmh 29.74 in1007.1 mb - 0.00 in0.0 mm 0.00 in0.0 mm
03:20 AM 91.4°F33.0°C 41.9°F5.5°C 18% 4.6 mph N7.4 kmh N 6.9 mph11.1 kmh 29.74 in1007.1 mb - 0.00 in0.0 mm 0.00 in0.0 mm
03:25 AM 91.8°F33.2°C 40.8°F4.9°C 17% 3.5 mph NE5.6 kmh NE 4.6 mph7.4 kmh 29.74 in1007.1 mb - 0.00 in0.0 mm 0.00 in0.0 mm
03:30 AM 91.8°F33.2°C 40.8°F4.9°C 17% 3.5 mph NNE5.6 kmh NNE 4.6 mph7.4 kmh 29.74 in1007.1 mb - 0.00 in0.0 mm 0.00 in0.0 mm
03:35 AM 91.6°F33.1°C 40.6°F4.8°C 17% 4.6 mph NNE7.4 kmh NNE 5.8 mph9.3 kmh 29.74 in1007.1 mb - 0.00 in0.0 mm 0.00 in0.0 mm
03:40 AM 91.6°F33.1°C 40.6°F4.8°C 17% 3.5 mph NW5.6 kmh NW 4.6 mph7.4 kmh 29.74 in1007.1 mb - 0.00 in0.0 mm 0.00 in0.0 mm
03:45 AM 91.3°F32.9°C 40.4°F4.7°C 17% 2.3 mph N3.7 kmh N 2.3 mph3.7 kmh 29.74 in1007.1 mb - 0.00 in0.0 mm 0.00 in0.0 mm
03:50 AM 90.7°F32.6°C 39.9°F4.4°C 17% 3.5 mph NE5.6 kmh NE 2.3 mph3.7 kmh 29.74 in1007.1 mb - 0.00 in0.0 mm 0.00 in0.0 mm
03:55 AM 90.5°F32.5°C 39.7°F4.3°C 17% 3.5 mph N5.6 kmh N 3.5 mph5.6 kmh 29.74 in1007.1 mb - 0.00 in0.0 mm 0.00 in0.0 mm
04:00 AM 90.6°F32.6°C 39.8°F4.3°C 17% 5.8 mph N9.3 kmh N 6.9 mph11.1 kmh 29.74 in1007.1 mb - 0.00 in0.0 mm 0.00 in0.0 mm
04:05 AM 91.1°F32.8°C 40.2°F4.6°C 17% 6.9 mph N11.1 kmh N 6.9 mph11.1 kmh 29.74 in1007.1 mb - 0.00 in0.0 mm 0.00 in0.0 mm
04:10 AM 91.4°F33.0°C 40.5°F4.7°C 17% 4.6 mph N7.4 kmh N 5.8 mph9.3 kmh 29.74 in1007.1 mb - 0.00 in0.0 mm 0.00 in0.0 mm
04:15 AM 91.9°F33.3°C 40.9°F4.9°C 17% 5.8 mph N9.3 kmh N 8.1 mph13.0 kmh 29.74 in1007.1 mb - 0.00 in0.0 mm 0.00 in0.0 mm
04:20 AM 91.9°F33.3°C 40.9°F4.9°C 17% 5.8 mph NNE9.3 kmh NNE 5.8 mph9.3 kmh 29.74 in1007.1 mb - 0.00 in0.0 mm 0.00 in0.0 mm
04:25 AM 91.6°F33.1°C 40.6°F4.8°C 17% 5.8 mph NNE9.3 kmh NNE 5.8 mph9.3 kmh 29.74 in1007.1 mb - 0.00 in0.0 mm 0.00 in0.0 mm
04:30 AM 91.6°F33.1°C 40.6°F4.8°C 17% 5.8 mph NE9.3 kmh NE 5.8 mph9.3 kmh 29.74 in1007.1 mb - 0.00 in0.0 mm 0.00 in0.0 mm
04:35 AM 91.0°F32.8°C 40.1°F4.5°C 17% 3.5 mph NE5.6 kmh NE 3.5 mph5.6 kmh 29.74 in1007.1 mb - 0.00 in0.0 mm 0.00 in0.0 mm
04:40 AM 90.8°F32.7°C 40.0°F4.4°C 17% 3.5 mph NE5.6 kmh NE 4.6 mph7.4 kmh 29.74 in1007.1 mb - 0.00 in0.0 mm 0.00 in0.0 mm
04:45 AM 90.1°F32.3°C 39.4°F4.1°C 17% 3.5 mph ENE5.6 kmh ENE 3.5 mph5.6 kmh 29.74 in1007.1 mb - 0.00 in0.0 mm 0.00 in0.0 mm
04:50 AM 90.0°F32.2°C 39.3°F4.1°C 17% 3.5 mph NE5.6 kmh NE 8.1 mph13.0 kmh 29.74 in1007.1 mb - 0.00 in0.0 mm 0.00 in0.0 mm
04:55 AM 91.2°F32.9°C 38.7°F3.7°C 16% 5.8 mph N9.3 kmh N 6.9 mph11.1 kmh 29.75 in1007.5 mb - 0.00 in0.0 mm 0.00 in0.0 mm
05:00 AM 91.4°F33.0°C 38.9°F3.8°C 16% 4.6 mph N7.4 kmh N 5.8 mph9.3 kmh 29.75 in1007.5 mb - 0.00 in0.0 mm 0.00 in0.0 mm
05:05 AM 91.3°F32.9°C 38.8°F3.8°C 16% 3.5 mph NNE5.6 kmh NNE 4.6 mph7.4 kmh 29.75 in1007.5 mb - 0.00 in0.0 mm 0.00 in0.0 mm
05:10 AM 91.0°F32.8°C 38.6°F3.7°C 16% 3.5 mph NNW5.6 kmh NNW 4.6 mph7.4 kmh 29.74 in1007.1 mb - 0.00 in0.0 mm 0.00 in0.0 mm
05:15 AM 90.9°F32.7°C 38.5°F3.6°C 16% 3.5 mph NNE5.6 kmh NNE 4.6 mph7.4 kmh 29.74 in1007.1 mb - 0.00 in0.0 mm 0.00 in0.0 mm
05:20 AM 90.7°F32.6°C 38.3°F3.5°C 16% 3.5 mph NNE5.6 kmh NNE 5.8 mph9.3 kmh 29.75 in1007.5 mb - 0.00 in0.0 mm 0.00 in0.0 mm
05:25 AM 91.0°F32.8°C 38.6°F3.7°C 16% 4.6 mph N7.4 kmh N 6.9 mph11.1 kmh 29.75 in1007.5 mb - 0.00 in0.0 mm 0.00 in0.0 mm
05:30 AM 91.6°F33.1°C 39.1°F3.9°C 16% 6.9 mph N11.1 kmh N 5.8 mph9.3 kmh 29.75 in1007.5 mb - 0.00 in0.0 mm 0.00 in0.0 mm
05:35 AM 91.6°F33.1°C 39.1°F3.9°C 16% 5.8 mph NNE9.3 kmh NNE 5.8 mph9.3 kmh 29.75 in1007.5 mb - 0.00 in0.0 mm 0.00 in0.0 mm
05:40 AM 91.4°F33.0°C 38.9°F3.8°C 16% 4.6 mph W7.4 kmh W 6.9 mph11.1 kmh 29.75 in1007.5 mb - 0.00 in0.0 mm 0.00 in0.0 mm
05:45 AM 91.2°F32.9°C 38.7°F3.7°C 16% 4.6 mph NNE7.4 kmh NNE 5.8 mph9.3 kmh 29.75 in1007.5 mb - 0.00 in0.0 mm 0.00 in0.0 mm
05:50 AM 91.0°F32.8°C 38.6°F3.7°C 16% 3.5 mph N5.6 kmh N 4.6 mph7.4 kmh 29.75 in1007.5 mb - 0.00 in0.0 mm 0.00 in0.0 mm
05:55 AM 91.0°F32.8°C 38.6°F3.7°C 16% 3.5 mph NNE5.6 kmh NNE 2.3 mph3.7 kmh 29.75 in1007.5 mb - 0.00 in0.0 mm 0.00 in0.0 mm
06:00 AM 91.0°F32.8°C 38.6°F3.7°C 16% 2.3 mph NNE3.7 kmh NNE 2.3 mph3.7 kmh 29.75 in1007.5 mb - 0.00 in0.0 mm 0.00 in0.0 mm
06:05 AM 91.3°F32.9°C 38.8°F3.8°C 16% 2.3 mph NW3.7 kmh NW 3.5 mph5.6 kmh 29.75 in1007.5 mb - 0.00 in0.0 mm 0.00 in0.0 mm
06:10 AM 91.9°F33.3°C 39.3°F4.1°C 16% 2.3 mph N3.7 kmh N 2.3 mph3.7 kmh 29.75 in1007.5 mb - 0.00 in0.0 mm 0.00 in0.0 mm
06:15 AM 92.6°F33.7°C 39.8°F4.3°C 16% 4.6 mph N7.4 kmh N 5.8 mph9.3 kmh 29.75 in1007.5 mb - 0.00 in0.0 mm 0.00 in0.0 mm
06:20 AM 93.2°F34.0°C 38.7°F3.7°C 15% 5.8 mph NE9.3 kmh NE 8.1 mph13.0 kmh 29.75 in1007.5 mb - 0.00 in0.0 mm 0.00 in0.0 mm
06:25 AM 93.6°F34.2°C 39.0°F3.9°C 15% 5.8 mph NNW9.3 kmh NNW 8.1 mph13.0 kmh 29.75 in1007.5 mb - 0.00 in0.0 mm 0.00 in0.0 mm
06:30 AM 93.6°F34.2°C 39.0°F3.9°C 15% 5.8 mph NNE9.3 kmh NNE 5.8 mph9.3 kmh 29.75 in1007.5 mb - 0.00 in0.0 mm 0.00 in0.0 mm
06:35 AM 93.2°F34.0°C 38.7°F3.7°C 15% 5.8 mph ENE9.3 kmh ENE 5.8 mph9.3 kmh 29.75 in1007.5 mb - 0.00 in0.0 mm 0.00 in0.0 mm
06:40 AM 92.8°F33.8°C 38.4°F3.6°C 15% 2.3 mph NNE3.7 kmh NNE 2.3 mph3.7 kmh 29.75 in1007.5 mb - 0.00 in0.0 mm 0.00 in0.0 mm
06:45 AM 92.6°F33.7°C 38.2°F3.4°C 15% Calm Calm -- 29.77 in1008.1 mb - 0.00 in0.0 mm 0.00 in0.0 mm
06:50 AM 91.2°F32.9°C 43.2°F6.2°C 19% 2.3 mph SSW3.7 kmh SSW 3.5 mph5.6 kmh 29.77 in1008.1 mb - 0.00 in0.0 mm 0.00 in0.0 mm
06:55 AM 90.1°F32.3°C 43.6°F6.4°C 20% 1.2 mph S1.9 kmh S 1.2 mph1.9 kmh 29.77 in1008.1 mb - 0.00 in0.0 mm 0.00 in0.0 mm
07:00 AM 90.7°F32.6°C 45.4°F7.4°C 21% Calm Calm -- 29.77 in1008.1 mb - 0.00 in0.0 mm 0.00 in0.0 mm
07:05 AM 91.6°F33.1°C 43.5°F6.4°C 19% Calm Calm -- 29.77 in1008.1 mb - 0.00 in0.0 mm 0.00 in0.0 mm
07:10 AM 92.5°F33.6°C 46.9°F8.3°C 21% Calm Calm -- 29.77 in1008.1 mb - 0.00 in0.0 mm 0.00 in0.0 mm
07:15 AM 93.6°F34.2°C 49.1°F9.5°C 22% Calm Calm -- 29.77 in1008.1 mb - 0.00 in0.0 mm 0.00 in0.0 mm
07:20 AM 95.1°F35.1°C 44.9°F7.2°C 18% Calm Calm 2.3 mph3.7 kmh 29.77 in1008.1 mb - 0.00 in0.0 mm 0.00 in0.0 mm
07:25 AM 96.2°F35.7°C 44.3°F6.8°C 17% Calm Calm -- 29.77 in1008.1 mb - 0.00 in0.0 mm 0.00 in0.0 mm
07:30 AM 97.1°F36.2°C 43.5°F6.4°C 16% 1.2 mph NNW1.9 kmh NNW 1.2 mph1.9 kmh 29.77 in1008.1 mb - 0.00 in0.0 mm 0.00 in0.0 mm
07:35 AM 98.5°F36.9°C 44.6°F7.0°C 16% Calm Calm 1.2 mph1.9 kmh 29.78 in1008.5 mb - 0.00 in0.0 mm 0.00 in0.0 mm
07:40 AM 99.5°F37.5°C 43.7°F6.5°C 15% Calm Calm 1.2 mph1.9 kmh 29.78 in1008.5 mb - 0.00 in0.0 mm 0.00 in0.0 mm
07:45 AM 99.9°F37.7°C 44.0°F6.7°C 15% Calm Calm -- 29.78 in1008.5 mb - 0.00 in0.0 mm 0.00 in0.0 mm
07:50 AM 102.7°F39.3°C 44.4°F6.9°C 14% Calm Calm -- 29.78 in1008.5 mb - 0.00 in0.0 mm 0.00 in0.0 mm
07:55 AM 102.6°F39.2°C 44.3°F6.8°C 14% Calm Calm 1.2 mph1.9 kmh 29.78 in1008.5 mb - 0.00 in0.0 mm 0.00 in0.0 mm
08:00 AM 103.5°F39.7°C 46.8°F8.2°C 15% 1.2 mph S1.9 kmh S 1.2 mph1.9 kmh 29.78 in1008.5 mb - 0.00 in0.0 mm 0.00 in0.0 mm
08:05 AM 103.5°F39.7°C 46.9°F8.3°C 15% 1.2 mph SSE1.9 kmh SSE 1.2 mph1.9 kmh 29.78 in1008.5 mb - 0.00 in0.0 mm 0.00 in0.0 mm
08:10 AM 104.0°F40.0°C 47.2°F8.4°C 15% 1.2 mph N1.9 kmh N 1.2 mph1.9 kmh 29.78 in1008.5 mb - 0.00 in0.0 mm 0.00 in0.0 mm
08:15 AM 104.2°F40.1°C 47.4°F8.6°C 15% 2.3 mph S3.7 kmh S 2.3 mph3.7 kmh 29.78 in1008.5 mb - 0.00 in0.0 mm 0.00 in0.0 mm
08:20 AM 104.1°F40.1°C 47.3°F8.5°C 15% 3.5 mph SE5.6 kmh SE 4.6 mph7.4 kmh 29.79 in1008.8 mb - 0.00 in0.0 mm 0.00 in0.0 mm
08:25 AM 104.6°F40.3°C 47.7°F8.7°C 15% 1.2 mph S1.9 kmh S 2.3 mph3.7 kmh 29.79 in1008.8 mb - 0.00 in0.0 mm 0.00 in0.0 mm
08:30 AM 104.5°F40.3°C 47.6°F8.7°C 15% 3.5 mph SSE5.6 kmh SSE 3.5 mph5.6 kmh 29.79 in1008.8 mb - 0.00 in0.0 mm 0.00 in0.0 mm
08:35 AM 105.3°F40.7°C 48.2°F9.0°C 15% 1.2 mph SE1.9 kmh SE 3.5 mph5.6 kmh 29.79 in1008.8 mb - 0.00 in0.0 mm 0.00 in0.0 mm
08:40 AM 105.1°F40.6°C 48.1°F8.9°C 15% 2.3 mph S3.7 kmh S 3.5 mph5.6 kmh 29.79 in1008.8 mb - 0.00 in0.0 mm 0.00 in0.0 mm
08:45 AM 105.3°F40.7°C 48.2°F9.0°C 15% 2.3 mph S3.7 kmh S 2.3 mph3.7 kmh 29.79 in1008.8 mb - 0.00 in0.0 mm 0.00 in0.0 mm
08:50 AM 105.8°F41.0°C 48.6°F9.2°C 15% 2.3 mph SW3.7 kmh SW 2.3 mph3.7 kmh 29.79 in1008.8 mb - 0.00 in0.0 mm 0.00 in0.0 mm
08:55 AM 105.6°F40.9°C 48.5°F9.2°C 15% 3.5 mph SE5.6 kmh SE 4.6 mph7.4 kmh 29.79 in1008.8 mb - 0.00 in0.0 mm 0.00 in0.0 mm
09:00 AM 106.5°F41.4°C 49.2°F9.6°C 15% 3.5 mph WSW5.6 kmh WSW 6.9 mph11.1 kmh 29.79 in1008.8 mb - 0.00 in0.0 mm 0.00 in0.0 mm
09:05 AM 106.2°F41.2°C 49.0°F9.4°C 15% 2.3 mph SSE3.7 kmh SSE 3.5 mph5.6 kmh 29.79 in1008.8 mb - 0.00 in0.0 mm 0.00 in0.0 mm
09:10 AM 106.4°F41.3°C 49.1°F9.5°C 15% 3.5 mph S5.6 kmh S 4.6 mph7.4 kmh 29.78 in1008.5 mb - 0.00 in0.0 mm 0.00 in0.0 mm
09:15 AM 106.7°F41.5°C 49.4°F9.7°C 15% 3.5 mph SSW5.6 kmh SSW 4.6 mph7.4 kmh 29.78 in1008.5 mb - 0.00 in0.0 mm 0.00 in0.0 mm
09:20 AM 106.8°F41.6°C 49.4°F9.7°C 15% 3.5 mph S5.6 kmh S 4.6 mph7.4 kmh 29.78 in1008.5 mb - 0.00 in0.0 mm 0.00 in0.0 mm
09:25 AM 107.7°F42.1°C 48.3°F9.1°C 14% 3.5 mph ESE5.6 kmh ESE 3.5 mph5.6 kmh 29.78 in1008.5 mb - 0.00 in0.0 mm 0.00 in0.0 mm
09:30 AM 108.0°F42.2°C 48.5°F9.2°C 14% 2.3 mph S3.7 kmh S 4.6 mph7.4 kmh 29.78 in1008.5 mb - 0.00 in0.0 mm 0.00 in0.0 mm
09:35 AM 109.6°F43.1°C 49.7°F9.8°C 14% 1.2 mph ESE1.9 kmh ESE 5.8 mph9.3 kmh 29.78 in1008.5 mb - 0.00 in0.0 mm 0.00 in0.0 mm
09:40 AM 108.5°F42.5°C 48.9°F9.4°C 14% 2.3 mph SE3.7 kmh SE 2.3 mph3.7 kmh 29.78 in1008.5 mb - 0.00 in0.0 mm 0.00 in0.0 mm
09:45 AM 109.0°F42.8°C 49.3°F9.6°C 14% 4.6 mph SE7.4 kmh SE 4.6 mph7.4 kmh 29.78 in1008.5 mb - 0.00 in0.0 mm 0.00 in0.0 mm
09:50 AM 108.9°F42.7°C 49.2°F9.6°C 14% 2.3 mph SSE3.7 kmh SSE 4.6 mph7.4 kmh 29.78 in1008.5 mb - 0.00 in0.0 mm 0.00 in0.0 mm
09:55 AM 109.6°F43.1°C 49.8°F9.9°C 14% 2.3 mph ESE3.7 kmh ESE 3.5 mph5.6 kmh 29.78 in1008.5 mb - 0.00 in0.0 mm 0.00 in0.0 mm
10:00 AM 110.1°F43.4°C 50.1°F10.1°C 14% 3.5 mph S5.6 kmh S 3.5 mph5.6 kmh 29.78 in1008.5 mb - 0.00 in0.0 mm 0.00 in0.0 mm
10:05 AM 110.3°F43.5°C 50.3°F10.2°C 14% 2.3 mph SSE3.7 kmh SSE 2.3 mph3.7 kmh 29.78 in1008.5 mb - 0.00 in0.0 mm 0.00 in0.0 mm
10:10 AM 109.6°F43.1°C 49.8°F9.9°C 14% 4.6 mph SSE7.4 kmh SSE 4.6 mph7.4 kmh 29.78 in1008.5 mb - 0.00 in0.0 mm 0.00 in0.0 mm
10:15 AM 109.9°F43.3°C 50.0°F10.0°C 14% 5.8 mph SSW9.3 kmh SSW 8.1 mph13.0 kmh 29.78 in1008.5 mb - 0.00 in0.0 mm 0.00 in0.0 mm
10:20 AM 108.9°F42.7°C 49.2°F9.6°C 14% 3.5 mph SW5.6 kmh SW 3.5 mph5.6 kmh 29.78 in1008.5 mb - 0.00 in0.0 mm 0.00 in0.0 mm
10:25 AM 109.5°F43.1°C 49.7°F9.8°C 14% 6.9 mph S11.1 kmh S 9.2 mph14.8 kmh 29.78 in1008.5 mb - 0.00 in0.0 mm 0.00 in0.0 mm
10:30 AM 109.9°F43.3°C 50.0°F10.0°C 14% 4.6 mph SSE7.4 kmh SSE 5.8 mph9.3 kmh 29.78 in1008.5 mb - 0.00 in0.0 mm 0.00 in0.0 mm
10:35 AM 110.0°F43.3°C 50.1°F10.1°C 14% 4.6 mph S7.4 kmh S 6.9 mph11.1 kmh 29.78 in1008.5 mb - 0.00 in0.0 mm 0.00 in0.0 mm
10:40 AM 110.6°F43.7°C 50.5°F10.3°C 14% 3.5 mph WNW5.6 kmh WNW 6.9 mph11.1 kmh 29.78 in1008.5 mb - 0.00 in0.0 mm 0.00 in0.0 mm
10:45 AM 109.2°F42.9°C 49.5°F9.7°C 14% 3.5 mph SSW5.6 kmh SSW 3.5 mph5.6 kmh 29.78 in1008.5 mb - 0.00 in0.0 mm 0.00 in0.0 mm
10:50 AM 108.5°F42.5°C 50.8°F10.4°C 15% 4.6 mph WSW7.4 kmh WSW 5.8 mph9.3 kmh 29.78 in1008.5 mb - 0.00 in0.0 mm 0.00 in0.0 mm
10:55 AM 108.5°F42.5°C 50.7°F10.4°C 15% 4.6 mph SSW7.4 kmh SSW 6.9 mph11.1 kmh 29.78 in1008.5 mb - 0.00 in0.0 mm 0.00 in0.0 mm
11:00 AM 107.7°F42.1°C 50.1°F10.1°C 15% 4.6 mph SSW7.4 kmh SSW 4.6 mph7.4 kmh 29.78 in1008.5 mb - 0.00 in0.0 mm 0.00 in0.0 mm
11:05 AM 109.0°F42.8°C 51.1°F10.6°C 15% 5.8 mph S9.3 kmh S 6.9 mph11.1 kmh 29.78 in1008.5 mb - 0.00 in0.0 mm 0.00 in0.0 mm
11:10 AM 107.6°F42.0°C 50.1°F10.1°C 15% 5.8 mph SSW9.3 kmh SSW 6.9 mph11.1 kmh 29.78 in1008.5 mb - 0.00 in0.0 mm 0.00 in0.0 mm
11:15 AM 108.5°F42.5°C 50.7°F10.4°C 15% 5.8 mph SW9.3 kmh SW 5.8 mph9.3 kmh 29.78 in1008.5 mb - 0.00 in0.0 mm 0.00 in0.0 mm
11:20 AM 108.0°F42.2°C 50.4°F10.2°C 15% 5.8 mph SSW9.3 kmh SSW 8.1 mph13.0 kmh 29.77 in1008.1 mb - 0.00 in0.0 mm 0.00 in0.0 mm
11:25 AM 109.0°F42.8°C 51.1°F10.6°C 15% 5.8 mph SSW9.3 kmh SSW 9.2 mph14.8 kmh 29.77 in1008.1 mb - 0.00 in0.0 mm 0.00 in0.0 mm
11:30 AM 108.9°F42.7°C 51.1°F10.6°C 15% 4.6 mph SSW7.4 kmh SSW 5.8 mph9.3 kmh 29.77 in1008.1 mb - 0.00 in0.0 mm 0.00 in0.0 mm
11:35 AM 110.5°F43.6°C 52.3°F11.3°C 15% 4.6 mph SSW7.4 kmh SSW 5.8 mph9.3 kmh 29.77 in1008.1 mb - 0.00 in0.0 mm 0.00 in0.0 mm
11:40 AM 111.2°F44.0°C 51.0°F10.6°C 14% 5.8 mph WSW9.3 kmh WSW 5.8 mph9.3 kmh 29.77 in1008.1 mb - 0.00 in0.0 mm 0.00 in0.0 mm
11:45 AM 111.7°F44.3°C 51.4°F10.8°C 14% 4.6 mph W7.4 kmh W 4.6 mph7.4 kmh 29.77 in1008.1 mb - 0.00 in0.0 mm 0.00 in0.0 mm
11:50 AM 112.4°F44.7°C 51.9°F11.1°C 14% 4.6 mph S7.4 kmh S 5.8 mph9.3 kmh 29.77 in1008.1 mb - 0.00 in0.0 mm 0.00 in0.0 mm
11:55 AM 112.1°F44.5°C 51.7°F10.9°C 14% 4.6 mph SSW7.4 kmh SSW 4.6 mph7.4 kmh 29.76 in1007.8 mb - 0.00 in0.0 mm 0.00 in0.0 mm
12:00 PM 111.3°F44.1°C 51.1°F10.6°C 14% 4.6 mph S7.4 kmh S 5.8 mph9.3 kmh 29.76 in1007.8 mb - 0.00 in0.0 mm 0.00 in0.0 mm
12:05 PM 112.8°F44.9°C 50.3°F10.2°C 13% 3.5 mph S5.6 kmh S 5.8 mph9.3 kmh 29.76 in1007.8 mb - 0.00 in0.0 mm 0.00 in0.0 mm
12:10 PM 111.7°F44.3°C 49.4°F9.7°C 13% 3.5 mph SSW5.6 kmh SSW 5.8 mph9.3 kmh 29.76 in1007.8 mb - 0.00 in0.0 mm 0.00 in0.0 mm
12:15 PM 112.5°F44.7°C 50.0°F10.0°C 13% 4.6 mph S7.4 kmh S 5.8 mph9.3 kmh 29.76 in1007.8 mb - 0.00 in0.0 mm 0.00 in0.0 mm
12:20 PM 113.4°F45.2°C 50.7°F10.4°C 13% 3.5 mph SSE5.6 kmh SSE 5.8 mph9.3 kmh 29.75 in1007.5 mb - 0.00 in0.0 mm 0.00 in0.0 mm
12:25 PM 112.3°F44.6°C 49.9°F9.9°C 13% 5.8 mph S9.3 kmh S 8.1 mph13.0 kmh 29.75 in1007.5 mb - 0.00 in0.0 mm 0.00 in0.0 mm
12:30 PM 111.8°F44.3°C 49.5°F9.7°C 13% 4.6 mph S7.4 kmh S 6.9 mph11.1 kmh 29.75 in1007.5 mb - 0.00 in0.0 mm 0.00 in0.0 mm
12:35 PM 111.1°F43.9°C 48.9°F9.4°C 13% 3.5 mph S5.6 kmh S 4.6 mph7.4 kmh 29.75 in1007.5 mb - 0.00 in0.0 mm 0.00 in0.0 mm
12:40 PM 110.9°F43.8°C 48.8°F9.3°C 13% 4.6 mph S7.4 kmh S 5.8 mph9.3 kmh 29.75 in1007.5 mb - 0.00 in0.0 mm 0.00 in0.0 mm
12:45 PM 111.8°F44.3°C 49.5°F9.7°C 13% 3.5 mph S5.6 kmh S 3.5 mph5.6 kmh 29.74 in1007.1 mb - 0.00 in0.0 mm 0.00 in0.0 mm
12:50 PM 112.5°F44.7°C 50.0°F10.0°C 13% 3.5 mph SW5.6 kmh SW 4.6 mph7.4 kmh 29.74 in1007.1 mb - 0.00 in0.0 mm 0.00 in0.0 mm
12:55 PM 114.1°F45.6°C 51.3°F10.7°C 13% 5.8 mph S9.3 kmh S 6.9 mph11.1 kmh 29.74 in1007.1 mb - 0.00 in0.0 mm 0.00 in0.0 mm
01:00 PM 113.0°F45.0°C 50.4°F10.2°C 13% 1.2 mph ESE1.9 kmh ESE 4.6 mph7.4 kmh 29.74 in1007.1 mb - 0.00 in0.0 mm 0.00 in0.0 mm
01:05 PM 113.8°F45.4°C 51.0°F10.6°C 13% 3.5 mph S5.6 kmh S 4.6 mph7.4 kmh 29.74 in1007.1 mb - 0.00 in0.0 mm 0.00 in0.0 mm
01:10 PM 113.8°F45.4°C 51.0°F10.6°C 13% 4.6 mph W7.4 kmh W 4.6 mph7.4 kmh 29.74 in1007.1 mb - 0.00 in0.0 mm 0.00 in0.0 mm
01:15 PM 114.0°F45.6°C 51.2°F10.7°C 13% 1.2 mph SW1.9 kmh SW 3.5 mph5.6 kmh 29.74 in1007.1 mb - 0.00 in0.0 mm 0.00 in0.0 mm
01:20 PM 114.1°F45.6°C 49.1°F9.5°C 12% 1.2 mph SW1.9 kmh SW 4.6 mph7.4 kmh 29.72 in1006.4 mb - 0.00 in0.0 mm 0.00 in0.0 mm
01:25 PM 113.8°F45.4°C 48.9°F9.4°C 12% 2.3 mph S3.7 kmh S 2.3 mph3.7 kmh 29.72 in1006.4 mb - 0.00 in0.0 mm 0.00 in0.0 mm
01:30 PM 115.6°F46.4°C 50.3°F10.2°C 12% 4.6 mph SW7.4 kmh SW 8.1 mph13.0 kmh 29.72 in1006.4 mb - 0.00 in0.0 mm 0.00 in0.0 mm
01:35 PM 114.6°F45.9°C 49.5°F9.7°C 12% 4.6 mph SSW7.4 kmh SSW 5.8 mph9.3 kmh 29.72 in1006.4 mb - 0.00 in0.0 mm 0.00 in0.0 mm
01:40 PM 114.7°F45.9°C 49.6°F9.8°C 12% 5.8 mph N9.3 kmh N 5.8 mph9.3 kmh 29.72 in1006.4 mb - 0.00 in0.0 mm 0.00 in0.0 mm
01:45 PM 115.7°F46.5°C 48.0°F8.9°C 11% 3.5 mph SW5.6 kmh SW 6.9 mph11.1 kmh 29.72 in1006.4 mb - 0.00 in0.0 mm 0.00 in0.0 mm
01:50 PM 114.4°F45.8°C 47.0°F8.3°C 11% 4.6 mph S7.4 kmh S 5.8 mph9.3 kmh 29.72 in1006.4 mb - 0.00 in0.0 mm 0.00 in0.0 mm
01:55 PM 114.7°F45.9°C 47.3°F8.5°C 11% 5.8 mph S9.3 kmh S 6.9 mph11.1 kmh 29.71 in1006.1 mb - 0.00 in0.0 mm 0.00 in0.0 mm
02:00 PM 115.8°F46.6°C 50.4°F10.2°C 12% 4.6 mph SW7.4 kmh SW 8.1 mph13.0 kmh 29.71 in1006.1 mb - 0.00 in0.0 mm 0.00 in0.0 mm
02:05 PM 115.3°F46.3°C 50.0°F10.0°C 12% 3.5 mph SW5.6 kmh SW 5.8 mph9.3 kmh 29.71 in1006.1 mb - 0.00 in0.0 mm 0.00 in0.0 mm
02:10 PM 115.3°F46.3°C 47.7°F8.7°C 11% 4.6 mph S7.4 kmh S 8.1 mph13.0 kmh 29.71 in1006.1 mb - 0.00 in0.0 mm 0.00 in0.0 mm
02:15 PM 116.0°F46.7°C 50.6°F10.3°C 12% 4.6 mph SW7.4 kmh SW 5.8 mph9.3 kmh 29.71 in1006.1 mb - 0.00 in0.0 mm 0.00 in0.0 mm
02:20 PM 116.2°F46.8°C 48.4°F9.1°C 11% 5.8 mph SSE9.3 kmh SSE 5.8 mph9.3 kmh 29.70 in1005.8 mb - 0.00 in0.0 mm 0.00 in0.0 mm
02:25 PM 115.9°F46.6°C 48.2°F9.0°C 11% 4.6 mph SW7.4 kmh SW 6.9 mph11.1 kmh 29.70 in1005.8 mb - 0.00 in0.0 mm 0.00 in0.0 mm
02:30 PM 117.3°F47.4°C 49.2°F9.6°C 11% 3.5 mph SSW5.6 kmh SSW 4.6 mph7.4 kmh 29.70 in1005.8 mb - 0.00 in0.0 mm 0.00 in0.0 mm
02:35 PM 116.7°F47.1°C 46.3°F7.9°C 10% 2.3 mph WSW3.7 kmh WSW 2.3 mph3.7 kmh 29.70 in1005.8 mb - 0.00 in0.0 mm 0.00 in0.0 mm
02:40 PM 117.3°F47.4°C 46.7°F8.2°C 10% 3.5 mph SSW5.6 kmh SSW 5.8 mph9.3 kmh 29.70 in1005.8 mb - 0.00 in0.0 mm 0.00 in0.0 mm
02:45 PM 116.7°F47.1°C 46.2°F7.9°C 10% 3.5 mph SSW5.6 kmh SSW 9.2 mph14.8 kmh 29.69 in1005.4 mb - 0.00 in0.0 mm 0.00 in0.0 mm
02:50 PM 116.4°F46.9°C 46.0°F7.8°C 10% 4.6 mph S7.4 kmh S 5.8 mph9.3 kmh 29.69 in1005.4 mb - 0.00 in0.0 mm 0.00 in0.0 mm
02:55 PM 116.9°F47.2°C 46.4°F8.0°C 10% 3.5 mph SW5.6 kmh SW 5.8 mph9.3 kmh 29.68 in1005.1 mb - 0.00 in0.0 mm 0.00 in0.0 mm
03:00 PM 116.2°F46.8°C 45.9°F7.7°C 10% 4.6 mph SSW7.4 kmh SSW 5.8 mph9.3 kmh 29.68 in1005.1 mb - 0.00 in0.0 mm 0.00 in0.0 mm
03:05 PM 116.6°F47.0°C 46.1°F7.8°C 10% 1.2 mph SSW1.9 kmh SSW 2.3 mph3.7 kmh 29.68 in1005.1 mb - 0.00 in0.0 mm 0.00 in0.0 mm
03:10 PM 117.3°F47.4°C 46.7°F8.2°C 10% 4.6 mph SW7.4 kmh SW 6.9 mph11.1 kmh 29.67 in1004.7 mb - 0.00 in0.0 mm 0.00 in0.0 mm
03:15 PM 116.2°F46.8°C 45.9°F7.7°C 10% 3.5 mph WSW5.6 kmh WSW 5.8 mph9.3 kmh 29.67 in1004.7 mb - 0.00 in0.0 mm 0.00 in0.0 mm
03:20 PM 117.7°F47.6°C 46.9°F8.3°C 10% 8.1 mph SSW13.0 kmh SSW 9.2 mph14.8 kmh 29.67 in1004.7 mb - 0.00 in0.0 mm 0.00 in0.0 mm
03:25 PM 116.8°F47.1°C 48.9°F9.4°C 11% 5.8 mph WSW9.3 kmh WSW 8.1 mph13.0 kmh 29.67 in1004.7 mb - 0.00 in0.0 mm 0.00 in0.0 mm
03:30 PM 116.8°F47.1°C 48.9°F9.4°C 11% 3.5 mph S5.6 kmh S 6.9 mph11.1 kmh 29.67 in1004.7 mb - 0.00 in0.0 mm 0.00 in0.0 mm
03:35 PM 116.7°F47.1°C 48.8°F9.3°C 11% 10.4 mph SW16.7 kmh SW 10.4 mph16.7 kmh 29.66 in1004.4 mb - 0.00 in0.0 mm 0.00 in0.0 mm
03:40 PM 117.0°F47.2°C 49.0°F9.4°C 11% 6.9 mph SSW11.1 kmh SSW 5.8 mph9.3 kmh 29.66 in1004.4 mb - 0.00 in0.0 mm 0.00 in0.0 mm
03:45 PM 116.2°F46.8°C 48.4°F9.1°C 11% 6.9 mph SW11.1 kmh SW 6.9 mph11.1 kmh 29.66 in1004.4 mb - 0.00 in0.0 mm 0.00 in0.0 mm
03:50 PM 116.2°F46.8°C 48.4°F9.1°C 11% 8.1 mph W13.0 kmh W 9.2 mph14.8 kmh 29.66 in1004.4 mb - 0.00 in0.0 mm 0.00 in0.0 mm
03:55 PM 116.6°F47.0°C 48.7°F9.3°C 11% 5.8 mph SSW9.3 kmh SSW 5.8 mph9.3 kmh 29.65 in1004.1 mb - 0.00 in0.0 mm 0.00 in0.0 mm
04:00 PM 116.8°F47.1°C 48.8°F9.3°C 11% 6.9 mph S11.1 kmh S 6.9 mph11.1 kmh 29.65 in1004.1 mb - 0.00 in0.0 mm 0.00 in0.0 mm
04:05 PM 117.2°F47.3°C 43.8°F6.6°C 9% 4.6 mph WNW7.4 kmh WNW 4.6 mph7.4 kmh 29.65 in1004.1 mb - 0.00 in0.0 mm 0.00 in0.0 mm
04:10 PM 116.1°F46.7°C 43.0°F6.1°C 9% 2.3 mph WNW3.7 kmh WNW 2.3 mph3.7 kmh 29.65 in1004.1 mb - 0.00 in0.0 mm 0.00 in0.0 mm
04:15 PM 115.7°F46.5°C 42.7°F5.9°C 9% 3.5 mph NW5.6 kmh NW 2.3 mph3.7 kmh 29.65 in1004.1 mb - 0.00 in0.0 mm 0.00 in0.0 mm
04:20 PM 116.8°F47.1°C 43.5°F6.4°C 9% 4.6 mph SSW7.4 kmh SSW 9.2 mph14.8 kmh 29.64 in1003.7 mb - 0.00 in0.0 mm 0.00 in0.0 mm
04:25 PM 116.4°F46.9°C 43.3°F6.3°C 9% 4.6 mph SSW7.4 kmh SSW 6.9 mph11.1 kmh 29.64 in1003.7 mb - 0.00 in0.0 mm 0.00 in0.0 mm
04:30 PM 116.9°F47.2°C 43.6°F6.4°C 9% 3.5 mph E5.6 kmh E 6.9 mph11.1 kmh 29.64 in1003.7 mb - 0.00 in0.0 mm 0.00 in0.0 mm
04:35 PM 116.1°F46.7°C 43.0°F6.1°C 9% 4.6 mph NNE7.4 kmh NNE 6.9 mph11.1 kmh 29.64 in1003.7 mb - 0.00 in0.0 mm 0.00 in0.0 mm
04:40 PM 114.5°F45.8°C 41.8°F5.4°C 9% 3.5 mph SSW5.6 kmh SSW 4.6 mph7.4 kmh 29.64 in1003.7 mb - 0.00 in0.0 mm 0.00 in0.0 mm
04:45 PM 115.1°F46.2°C 42.3°F5.7°C 9% 5.8 mph SSW9.3 kmh SSW 10.4 mph16.7 kmh 29.64 in1003.7 mb - 0.00 in0.0 mm 0.00 in0.0 mm
04:50 PM 115.3°F46.3°C 42.4°F5.8°C 9% 6.9 mph SSW11.1 kmh SSW 10.4 mph16.7 kmh 29.64 in1003.7 mb - 0.00 in0.0 mm 0.00 in0.0 mm
04:55 PM 114.7°F45.9°C 42.0°F5.6°C 9% 4.6 mph SW7.4 kmh SW 5.8 mph9.3 kmh 29.64 in1003.7 mb - 0.00 in0.0 mm 0.00 in0.0 mm
05:00 PM 115.0°F46.1°C 42.2°F5.7°C 9% 4.6 mph SSE7.4 kmh SSE 3.5 mph5.6 kmh 29.63 in1003.4 mb - 0.00 in0.0 mm 0.00 in0.0 mm
05:05 PM 114.4°F45.8°C 41.8°F5.4°C 9% 6.9 mph S11.1 kmh S 9.2 mph14.8 kmh 29.63 in1003.4 mb - 0.00 in0.0 mm 0.00 in0.0 mm
05:10 PM 115.0°F46.1°C 42.2°F5.7°C 9% 4.6 mph W7.4 kmh W 8.1 mph13.0 kmh 29.63 in1003.4 mb - 0.00 in0.0 mm 0.00 in0.0 mm
05:15 PM 114.4°F45.8°C 41.8°F5.4°C 9% 4.6 mph E7.4 kmh E 5.8 mph9.3 kmh 29.63 in1003.4 mb - 0.00 in0.0 mm 0.00 in0.0 mm
05:20 PM 114.6°F45.9°C 41.9°F5.5°C 9% 3.5 mph SSE5.6 kmh SSE 5.8 mph9.3 kmh 29.63 in1003.4 mb - 0.00 in0.0 mm 0.00 in0.0 mm
05:25 PM 114.4°F45.8°C 41.8°F5.4°C 9% 4.6 mph WSW7.4 kmh WSW 5.8 mph9.3 kmh 29.63 in1003.4 mb - 0.00 in0.0 mm 0.00 in0.0 mm
05:30 PM 114.6°F45.9°C 41.9°F5.5°C 9% 3.5 mph SSW5.6 kmh SSW 5.8 mph9.3 kmh 29.63 in1003.4 mb - 0.00 in0.0 mm 0.00 in0.0 mm
05:35 PM 114.6°F45.9°C 41.9°F5.5°C 9% 3.5 mph WSW5.6 kmh WSW 5.8 mph9.3 kmh 29.63 in1003.4 mb - 0.00 in0.0 mm 0.00 in0.0 mm
05:40 PM 114.6°F45.9°C 41.9°F5.5°C 9% 5.8 mph SW9.3 kmh SW 9.2 mph14.8 kmh 29.63 in1003.4 mb - 0.00 in0.0 mm 0.00 in0.0 mm
05:45 PM 113.9°F45.5°C 41.4°F5.2°C 9% 6.9 mph S11.1 kmh S 8.1 mph13.0 kmh 29.63 in1003.4 mb - 0.00 in0.0 mm 0.00 in0.0 mm
05:50 PM 113.7°F45.4°C 41.2°F5.1°C 9% 3.5 mph WSW5.6 kmh WSW 5.8 mph9.3 kmh 29.63 in1003.4 mb - 0.00 in0.0 mm 0.00 in0.0 mm
05:55 PM 113.7°F45.4°C 41.2°F5.1°C 9% 2.3 mph SW3.7 kmh SW 3.5 mph5.6 kmh 29.63 in1003.4 mb - 0.00 in0.0 mm 0.00 in0.0 mm
06:00 PM 113.9°F45.5°C 41.4°F5.2°C 9% 3.5 mph SW5.6 kmh SW 9.2 mph14.8 kmh 29.63 in1003.4 mb - 0.00 in0.0 mm 0.00 in0.0 mm
06:05 PM 113.7°F45.4°C 41.2°F5.1°C 9% 5.8 mph SSW9.3 kmh SSW 5.8 mph9.3 kmh 29.63 in1003.4 mb - 0.00 in0.0 mm 0.00 in0.0 mm
06:10 PM 113.5°F45.3°C 41.1°F5.1°C 9% 3.5 mph N5.6 kmh N 4.6 mph7.4 kmh 29.62 in1003.0 mb - 0.00 in0.0 mm 0.00 in0.0 mm
06:15 PM 113.4°F45.2°C 43.8°F6.6°C 10% 6.9 mph SW11.1 kmh SW 9.2 mph14.8 kmh 29.62 in1003.0 mb - 0.00 in0.0 mm 0.00 in0.0 mm
06:20 PM 113.0°F45.0°C 43.5°F6.4°C 10% 6.9 mph SW11.1 kmh SW 8.1 mph13.0 kmh 29.62 in1003.0 mb - 0.00 in0.0 mm 0.00 in0.0 mm
06:25 PM 113.0°F45.0°C 43.5°F6.4°C 10% 5.8 mph SW9.3 kmh SW 6.9 mph11.1 kmh 29.62 in1003.0 mb - 0.00 in0.0 mm 0.00 in0.0 mm
06:30 PM 112.6°F44.8°C 43.2°F6.2°C 10% 5.8 mph S9.3 kmh S 10.4 mph16.7 kmh 29.62 in1003.0 mb - 0.00 in0.0 mm 0.00 in0.0 mm
06:35 PM 112.5°F44.7°C 43.1°F6.2°C 10% 5.8 mph SSW9.3 kmh SSW 5.8 mph9.3 kmh 29.63 in1003.4 mb - 0.00 in0.0 mm 0.00 in0.0 mm
06:40 PM 112.3°F44.6°C 42.9°F6.1°C 10% 3.5 mph S5.6 kmh S 3.5 mph5.6 kmh 29.63 in1003.4 mb - 0.00 in0.0 mm 0.00 in0.0 mm
06:45 PM 112.1°F44.5°C 42.8°F6.0°C 10% 5.8 mph SW9.3 kmh SW 6.9 mph11.1 kmh 29.62 in1003.0 mb - 0.00 in0.0 mm 0.00 in0.0 mm
06:50 PM 111.9°F44.4°C 42.6°F5.9°C 10% 6.9 mph SW11.1 kmh SW 6.9 mph11.1 kmh 29.62 in1003.0 mb - 0.00 in0.0 mm 0.00 in0.0 mm
06:55 PM 111.8°F44.3°C 42.5°F5.8°C 10% 8.1 mph WSW13.0 kmh WSW 10.4 mph16.7 kmh 29.63 in1003.4 mb - 0.00 in0.0 mm 0.00 in0.0 mm
07:00 PM 111.6°F44.2°C 42.4°F5.8°C 10% 5.8 mph SSE9.3 kmh SSE 9.2 mph14.8 kmh 29.63 in1003.4 mb - 0.00 in0.0 mm 0.00 in0.0 mm
07:05 PM 111.2°F44.0°C 42.1°F5.6°C 10% 6.9 mph NW11.1 kmh NW 6.9 mph11.1 kmh 29.63 in1003.4 mb - 0.00 in0.0 mm 0.00 in0.0 mm
07:10 PM 111.0°F43.9°C 42.0°F5.6°C 10% 5.8 mph SSE9.3 kmh SSE 6.9 mph11.1 kmh 29.63 in1003.4 mb - 0.00 in0.0 mm 0.00 in0.0 mm
07:15 PM 110.8°F43.8°C 41.8°F5.4°C 10% 5.8 mph S9.3 kmh S 5.8 mph9.3 kmh 29.63 in1003.4 mb - 0.00 in0.0 mm 0.00 in0.0 mm
07:20 PM 110.1°F43.4°C 43.8°F6.6°C 11% 4.6 mph WSW7.4 kmh WSW 5.8 mph9.3 kmh 29.63 in1003.4 mb - 0.00 in0.0 mm 0.00 in0.0 mm
07:25 PM 109.6°F43.1°C 43.4°F6.3°C 11% 4.6 mph SSW7.4 kmh SSW 6.9 mph11.1 kmh 29.63 in1003.4 mb - 0.00 in0.0 mm 0.00 in0.0 mm
07:30 PM 109.3°F42.9°C 43.1°F6.2°C 11% 4.6 mph S7.4 kmh S 8.1 mph13.0 kmh 29.63 in1003.4 mb - 0.00 in0.0 mm 0.00 in0.0 mm
07:35 PM 108.9°F42.7°C 42.8°F6.0°C 11% 5.8 mph S9.3 kmh S 6.9 mph11.1 kmh 29.63 in1003.4 mb - 0.00 in0.0 mm 0.00 in0.0 mm
07:40 PM 108.3°F42.4°C 42.4°F5.8°C 11% 4.6 mph SSW7.4 kmh SSW 5.8 mph9.3 kmh 29.63 in1003.4 mb - 0.00 in0.0 mm 0.00 in0.0 mm
07:45 PM 107.9°F42.2°C 44.3°F6.8°C 12% 3.5 mph SSW5.6 kmh SSW 5.8 mph9.3 kmh 29.64 in1003.7 mb - 0.00 in0.0 mm 0.00 in0.0 mm
07:50 PM 107.4°F41.9°C 44.0°F6.7°C 12% 4.6 mph SW7.4 kmh SW 5.8 mph9.3 kmh 29.64 in1003.7 mb - 0.00 in0.0 mm 0.00 in0.0 mm
07:55 PM 107.2°F41.8°C 43.8°F6.6°C 12% 3.5 mph S5.6 kmh S 5.8 mph9.3 kmh 29.64 in1003.7 mb - 0.00 in0.0 mm 0.00 in0.0 mm
08:00 PM 106.6°F41.4°C 43.3°F6.3°C 12% 4.6 mph SSW7.4 kmh SSW 5.8 mph9.3 kmh 29.64 in1003.7 mb - 0.00 in0.0 mm 0.00 in0.0 mm
08:05 PM 106.2°F41.2°C 43.1°F6.2°C 12% 3.5 mph SSW5.6 kmh SSW 5.8 mph9.3 kmh 29.64 in1003.7 mb - 0.00 in0.0 mm 0.00 in0.0 mm
08:10 PM 105.8°F41.0°C 42.7°F5.9°C 12% 1.2 mph S1.9 kmh S 1.2 mph1.9 kmh 29.64 in1003.7 mb - 0.00 in0.0 mm 0.00 in0.0 mm
08:15 PM 105.1°F40.6°C 44.3°F6.8°C 13% 2.3 mph SSW3.7 kmh SSW 2.3 mph3.7 kmh 29.64 in1003.7 mb - 0.00 in0.0 mm 0.00 in0.0 mm
08:20 PM 104.7°F40.4°C 44.0°F6.7°C 13% 3.5 mph SW5.6 kmh SW 5.8 mph9.3 kmh 29.65 in1004.1 mb - 0.00 in0.0 mm 0.00 in0.0 mm
08:25 PM 104.4°F40.2°C 43.8°F6.6°C 13% 4.6 mph S7.4 kmh S 4.6 mph7.4 kmh 29.65 in1004.1 mb - 0.00 in0.0 mm 0.00 in0.0 mm
08:30 PM 104.4°F40.2°C 43.8°F6.6°C 13% 3.5 mph SW5.6 kmh SW 4.6 mph7.4 kmh 29.65 in1004.1 mb - 0.00 in0.0 mm 0.00 in0.0 mm
08:35 PM 104.4°F40.2°C 43.8°F6.6°C 13% 5.8 mph SSW9.3 kmh SSW 8.1 mph13.0 kmh 29.65 in1004.1 mb - 0.00 in0.0 mm 0.00 in0.0 mm
08:40 PM 104.4°F40.2°C 43.8°F6.6°C 13% 4.6 mph SSW7.4 kmh SSW 5.8 mph9.3 kmh 29.65 in1004.1 mb - 0.00 in0.0 mm 0.00 in0.0 mm
08:45 PM 104.7°F40.4°C 44.0°F6.7°C 13% 4.6 mph S7.4 kmh S 6.9 mph11.1 kmh 29.65 in1004.1 mb - 0.00 in0.0 mm 0.00 in0.0 mm
08:50 PM 104.5°F40.3°C 43.8°F6.6°C 13% 2.3 mph SSE3.7 kmh SSE 2.3 mph3.7 kmh 29.65 in1004.1 mb - 0.00 in0.0 mm 0.00 in0.0 mm
08:55 PM 104.4°F40.2°C 43.8°F6.6°C 13% 4.6 mph S7.4 kmh S 5.8 mph9.3 kmh 29.65 in1004.1 mb - 0.00 in0.0 mm 0.00 in0.0 mm
09:00 PM 104.1°F40.1°C 43.5°F6.4°C 13% 3.5 mph SSW5.6 kmh SSW 3.5 mph5.6 kmh 29.65 in1004.1 mb - 0.00 in0.0 mm 0.00 in0.0 mm
09:05 PM 103.8°F39.9°C 43.3°F6.3°C 13% 4.6 mph SSW7.4 kmh SSW 5.8 mph9.3 kmh 29.65 in1004.1 mb - 0.00 in0.0 mm 0.00 in0.0 mm
09:10 PM 103.6°F39.8°C 43.1°F6.2°C 13% 4.6 mph SW7.4 kmh SW 9.2 mph14.8 kmh 29.66 in1004.4 mb - 0.00 in0.0 mm 0.00 in0.0 mm
09:15 PM 103.6°F39.8°C 43.1°F6.2°C 13% 3.5 mph SW5.6 kmh SW 4.6 mph7.4 kmh 29.66 in1004.4 mb - 0.00 in0.0 mm 0.00 in0.0 mm
09:20 PM 103.2°F39.6°C 42.9°F6.1°C 13% 2.3 mph S3.7 kmh S 4.6 mph7.4 kmh 29.66 in1004.4 mb - 0.00 in0.0 mm 0.00 in0.0 mm
09:25 PM 102.9°F39.4°C 42.6°F5.9°C 13% 3.5 mph SW5.6 kmh SW 3.5 mph5.6 kmh 29.66 in1004.4 mb - 0.00 in0.0 mm 0.00 in0.0 mm
09:30 PM 102.6°F39.2°C 44.3°F6.8°C 14% 3.5 mph SSW5.6 kmh SSW 4.6 mph7.4 kmh 29.66 in1004.4 mb - 0.00 in0.0 mm 0.00 in0.0 mm
09:35 PM 102.2°F39.0°C 44.0°F6.7°C 14% 3.5 mph S5.6 kmh S 4.6 mph7.4 kmh 29.67 in1004.7 mb - 0.00 in0.0 mm 0.00 in0.0 mm
09:40 PM 102.0°F38.9°C 43.8°F6.6°C 14% 1.2 mph SSW1.9 kmh SSW 3.5 mph5.6 kmh 29.67 in1004.7 mb - 0.00 in0.0 mm 0.00 in0.0 mm
09:45 PM 101.7°F38.7°C 43.6°F6.4°C 14% 3.5 mph S5.6 kmh S 3.5 mph5.6 kmh 29.67 in1004.7 mb - 0.00 in0.0 mm 0.00 in0.0 mm
09:50 PM 101.3°F38.5°C 43.3°F6.3°C 14% 4.6 mph SW7.4 kmh SW 4.6 mph7.4 kmh 29.67 in1004.7 mb - 0.00 in0.0 mm 0.00 in0.0 mm
09:55 PM 101.3°F38.5°C 43.3°F6.3°C 14% 3.5 mph SW5.6 kmh SW 3.5 mph5.6 kmh 29.67 in1004.7 mb - 0.00 in0.0 mm 0.00 in0.0 mm
10:00 PM 101.1°F38.4°C 43.1°F6.2°C 14% 2.3 mph SSE3.7 kmh SSE 3.5 mph5.6 kmh 29.67 in1004.7 mb - 0.00 in0.0 mm 0.00 in0.0 mm
10:05 PM 100.8°F38.2°C 42.9°F6.1°C 14% 1.2 mph SW1.9 kmh SW 4.6 mph7.4 kmh 29.67 in1004.7 mb - 0.00 in0.0 mm 0.00 in0.0 mm
10:10 PM 100.4°F38.0°C 42.6°F5.9°C 14% 2.3 mph S3.7 kmh S 2.3 mph3.7 kmh 29.68 in1005.1 mb - 0.00 in0.0 mm 0.00 in0.0 mm
10:15 PM 100.2°F37.9°C 42.4°F5.8°C 14% 2.3 mph SSE3.7 kmh SSE 3.5 mph5.6 kmh 29.68 in1005.1 mb - 0.00 in0.0 mm 0.00 in0.0 mm
10:20 PM 99.9°F37.7°C 42.2°F5.7°C 14% 1.2 mph SW1.9 kmh SW 1.2 mph1.9 kmh 29.67 in1004.7 mb - 0.00 in0.0 mm 0.00 in0.0 mm
10:25 PM 99.5°F37.5°C 43.6°F6.4°C 15% Calm Calm -- 29.67 in1004.7 mb - 0.00 in0.0 mm 0.00 in0.0 mm
10:30 PM 98.8°F37.1°C 43.1°F6.2°C 15% Calm Calm -- 29.67 in1004.7 mb - 0.00 in0.0 mm 0.00 in0.0 mm
10:35 PM 98.4°F36.9°C 42.8°F6.0°C 15% Calm Calm -- 29.68 in1005.1 mb - 0.00 in0.0 mm 0.00 in0.0 mm
10:40 PM 97.5°F36.4°C 43.8°F6.6°C 16% Calm Calm -- 29.68 in1005.1 mb - 0.00 in0.0 mm 0.00 in0.0 mm
10:45 PM 97.0°F36.1°C 43.4°F6.3°C 16% Calm Calm -- 29.68 in1005.1 mb - 0.00 in0.0 mm 0.00 in0.0 mm
10:50 PM 96.4°F35.8°C 42.9°F6.1°C 16% Calm Calm -- 29.68 in1005.1 mb - 0.00 in0.0 mm 0.00 in0.0 mm
10:55 PM 96.1°F35.6°C 42.6°F5.9°C 16% Calm Calm -- 29.68 in1005.1 mb - 0.00 in0.0 mm 0.00 in0.0 mm
11:00 PM 95.5°F35.3°C 42.1°F5.6°C 16% Calm Calm -- 29.68 in1005.1 mb - 0.00 in0.0 mm 0.00 in0.0 mm
11:05 PM 95.0°F35.0°C 41.8°F5.4°C 16% Calm Calm -- 29.68 in1005.1 mb - 0.00 in0.0 mm 0.00 in0.0 mm
11:10 PM 94.7°F34.8°C 43.1°F6.2°C 17% Calm Calm -- 29.68 in1005.1 mb - 0.00 in0.0 mm 0.00 in0.0 mm
11:15 PM 94.8°F34.9°C 43.2°F6.2°C 17% Calm Calm -- 29.68 in1005.1 mb - 0.00 in0.0 mm 0.00 in0.0 mm
11:20 PM 94.3°F34.6°C 42.8°F6.0°C 17% Calm Calm -- 29.68 in1005.1 mb - 0.00 in0.0 mm 0.00 in0.0 mm
11:25 PM 94.1°F34.5°C 42.6°F5.9°C 17% 1.2 mph SE1.9 kmh SE 2.3 mph3.7 kmh 29.68 in1005.1 mb - 0.00 in0.0 mm 0.00 in0.0 mm
11:30 PM 93.9°F34.4°C 42.5°F5.8°C 17% 1.2 mph SSE1.9 kmh SSE 2.3 mph3.7 kmh 29.68 in1005.1 mb - 0.00 in0.0 mm 0.00 in0.0 mm
11:35 PM 93.6°F34.2°C 42.2°F5.7°C 17% Calm Calm -- 29.68 in1005.1 mb - 0.00 in0.0 mm 0.00 in0.0 mm
11:40 PM 93.2°F34.0°C 43.4°F6.3°C 18% Calm Calm -- 29.68 in1005.1 mb - 0.00 in0.0 mm 0.00 in0.0 mm
11:45 PM 92.7°F33.7°C 43.0°F6.1°C 18% Calm Calm -- 29.69 in1005.4 mb - 0.00 in0.0 mm 0.00 in0.0 mm
11:50 PM 92.3°F33.5°C 42.7°F5.9°C 18% Calm Calm -- 29.69 in1005.4 mb - 0.00 in0.0 mm 0.00 in0.0 mm
11:55 PM 92.1°F33.4°C 42.5°F5.8°C 18% Calm Calm -- 29.69 in1005.4 mb - 0.00 in0.0 mm 0.00 in0.0 mm